createdAt,value
2022-09-23T00:02:12.526Z,0.90
2022-09-23T00:04:42.608Z,1.00
2022-09-23T00:07:10.762Z,0.95
2022-09-23T00:09:57.604Z,0.70
2022-09-23T00:12:25.733Z,1.00
2022-09-23T00:15:12.621Z,0.80
2022-09-23T00:17:40.910Z,0.75
2022-09-23T00:20:10.543Z,0.75
2022-09-23T00:22:58.081Z,1.10
2022-09-23T00:25:27.794Z,0.85
2022-09-23T00:27:57.339Z,1.02
2022-09-23T00:30:25.794Z,0.70
2022-09-23T00:32:53.984Z,1.00
2022-09-23T00:35:22.148Z,0.98
2022-09-23T00:37:50.420Z,1.08
2022-09-23T00:40:18.892Z,0.85
2022-09-23T00:42:49.210Z,0.82
2022-09-23T00:45:18.357Z,0.95
2022-09-23T00:47:57.202Z,0.88
2022-09-23T00:50:38.005Z,0.80
2022-09-23T00:53:10.102Z,2.38
2022-09-23T00:55:49.103Z,0.90
2022-09-23T00:58:21.408Z,0.80
2022-09-23T01:00:49.754Z,1.00
2022-09-23T01:03:19.945Z,0.77
2022-09-23T01:05:48.396Z,1.02
2022-09-23T01:08:16.978Z,0.80
2022-09-23T01:10:51.275Z,0.90
2022-09-23T01:14:02.426Z,0.80
2022-09-23T01:16:50.612Z,0.93
2022-09-23T01:19:37.241Z,0.77
2022-09-23T01:22:17.347Z,1.02
2022-09-23T01:25:06.883Z,0.73
2022-09-23T01:28:19.689Z,0.88
2022-09-23T01:31:10.741Z,0.80
2022-09-23T01:34:03.524Z,1.00
2022-09-23T01:36:40.327Z,0.70
2022-09-23T01:39:27.050Z,0.70
2022-09-23T01:42:04.940Z,1.23
2022-09-23T01:45:07.431Z,1.25
2022-09-23T01:51:18.080Z,1.20
2022-09-23T01:54:06.710Z,0.98
2022-09-23T02:00:11.026Z,3.42
2022-09-23T02:02:56.670Z,2.83
2022-09-23T02:05:34.931Z,1.40
2022-09-23T02:08:09.101Z,0.98
2022-09-23T02:10:47.627Z,1.10
2022-09-23T02:13:22.944Z,0.95
2022-09-23T02:15:55.412Z,0.88
2022-09-23T02:18:27.787Z,1.10
2022-09-23T02:21:16.296Z,0.90
2022-09-23T02:26:54.863Z,0.90
2022-09-23T02:29:31.911Z,0.90
2022-09-23T02:32:05.673Z,1.10
2022-09-23T02:34:52.186Z,1.20
2022-09-23T02:37:26.595Z,1.20
2022-09-23T02:40:23.833Z,1.00
2022-09-23T02:43:17.368Z,1.20
2022-09-23T02:45:46.353Z,1.40
2022-09-23T02:48:20.402Z,1.88
2022-09-23T02:50:49.286Z,1.42
2022-09-23T02:53:17.787Z,1.30
2022-09-23T02:56:21.392Z,1.20
2022-09-23T02:58:52.211Z,1.40
2022-09-23T03:02:03.404Z,1.25
2022-09-23T03:05:04.210Z,0.95
2022-09-23T03:08:09.929Z,1.10
2022-09-23T03:10:49.073Z,1.10
2022-09-23T03:13:30.225Z,1.10
2022-09-23T03:16:16.761Z,1.63
2022-09-23T03:19:03.601Z,1.13
2022-09-23T03:21:41.823Z,1.13
2022-09-23T03:24:14.654Z,0.98
2022-09-23T03:26:47.706Z,1.00
2022-09-23T03:29:17.284Z,1.20
2022-09-23T03:31:45.743Z,1.00
2022-09-23T03:34:18.794Z,1.05
2022-09-23T03:37:01.710Z,0.90
2022-09-23T03:39:41.215Z,0.80
2022-09-23T03:42:22.216Z,1.00
2022-09-23T03:45:17.449Z,1.38
2022-09-23T03:47:46.357Z,2.55
2022-09-23T03:50:16.423Z,1.10
2022-09-23T03:52:44.700Z,1.08
2022-09-23T03:55:12.878Z,1.40
2022-09-23T03:57:41.165Z,1.05
2022-09-23T04:00:28.239Z,1.40
2022-09-23T04:03:15.220Z,1.48
2022-09-23T04:06:01.960Z,1.00
2022-09-23T04:08:30.018Z,0.95
2022-09-23T04:11:02.680Z,1.10
2022-09-23T04:13:31.900Z,1.20
2022-09-23T04:16:00.233Z,1.25
2022-09-23T04:18:28.469Z,1.52
2022-09-23T04:21:00.145Z,1.00
2022-09-23T04:23:29.023Z,1.10
2022-09-23T04:26:16.501Z,1.38
2022-09-23T04:28:44.538Z,1.02
2022-09-23T04:31:13.071Z,1.20
2022-09-23T04:33:41.317Z,1.00
2022-09-23T04:36:09.528Z,1.00
2022-09-23T04:38:37.671Z,1.05
2022-09-23T04:41:09.897Z,1.13
2022-09-23T04:43:37.929Z,1.35
2022-09-23T04:46:08.308Z,1.92
2022-09-23T04:48:37.841Z,2.03
2022-09-23T04:51:12.067Z,1.50
2022-09-23T04:53:42.306Z,1.55
2022-09-23T04:56:32.899Z,0.98
2022-09-23T04:59:02.094Z,1.35
2022-09-23T05:01:32.563Z,1.20
2022-09-23T05:04:05.711Z,1.42
2022-09-23T05:06:35.923Z,1.50
2022-09-23T05:09:07.250Z,1.02
2022-09-23T05:11:53.924Z,1.17
2022-09-23T05:14:21.950Z,1.23
2022-09-23T05:16:49.933Z,1.40
2022-09-23T05:19:17.932Z,2.10
2022-09-23T05:21:45.882Z,1.30
2022-09-23T05:24:13.974Z,0.98
2022-09-23T05:26:42.126Z,1.40
2022-09-23T05:29:10.168Z,1.77
2022-09-23T05:31:56.887Z,1.80
2022-09-23T05:34:25.132Z,1.23
2022-09-23T05:36:53.234Z,1.60
2022-09-23T05:39:21.304Z,1.17
2022-09-23T05:41:49.303Z,1.20
2022-09-23T05:44:17.800Z,1.50
2022-09-23T05:46:45.949Z,1.40
2022-09-23T05:49:13.960Z,1.63
2022-09-23T05:51:41.945Z,2.40
2022-09-23T05:54:10.356Z,2.00
2022-09-23T05:56:38.597Z,1.80
2022-09-23T05:59:07.081Z,1.80
2022-09-23T06:04:22.114Z,1.70
2022-09-23T06:06:50.224Z,1.67
2022-09-23T06:09:18.263Z,1.55
2022-09-23T06:12:06.638Z,1.20
2022-09-23T06:14:34.569Z,1.23
2022-09-23T06:17:02.561Z,1.83
2022-09-23T06:19:30.654Z,1.75
2022-09-23T06:21:58.725Z,1.65
2022-09-23T06:24:31.128Z,1.13
2022-09-23T06:26:59.733Z,1.52
2022-09-23T06:29:28.357Z,1.45
2022-09-23T06:31:56.814Z,1.40
2022-09-23T06:34:24.889Z,1.50
2022-09-23T06:36:54.094Z,1.58
2022-09-23T06:39:22.161Z,1.10
2022-09-23T06:41:50.205Z,1.45
2022-09-23T06:44:18.244Z,1.65
2022-09-23T06:46:46.291Z,1.20
2022-09-23T06:49:14.338Z,2.10
2022-09-23T06:51:42.469Z,2.05
2022-09-23T06:54:11.464Z,1.48
2022-09-23T06:56:40.107Z,2.00
2022-09-23T06:59:11.206Z,2.10
2022-09-23T07:01:39.599Z,1.70
2022-09-23T07:04:08.023Z,2.10
2022-09-23T07:06:36.521Z,2.15
2022-09-23T07:09:06.767Z,2.50
2022-09-23T07:11:35.026Z,2.03
2022-09-23T07:14:03.198Z,1.80
2022-09-23T07:16:31.911Z,1.30
2022-09-23T07:19:00.134Z,1.27
2022-09-23T07:21:28.224Z,1.10
2022-09-23T07:23:58.428Z,1.67
2022-09-23T07:26:27.016Z,1.38
2022-09-23T07:28:57.003Z,1.10
2022-09-23T07:31:37.722Z,1.40
2022-09-23T07:34:08.624Z,1.05
2022-09-23T07:36:37.707Z,1.50
2022-09-23T07:39:05.781Z,1.52
2022-09-23T07:41:35.499Z,2.00
2022-09-23T07:44:04.315Z,1.33
2022-09-23T07:46:36.080Z,1.80
2022-09-23T07:49:05.594Z,1.45
2022-09-23T07:51:53.075Z,1.70
2022-09-23T07:54:21.830Z,2.28
2022-09-23T07:56:49.778Z,1.60
2022-09-23T07:59:19.031Z,2.10
2022-09-23T08:01:49.766Z,1.60
2022-09-23T08:04:47.877Z,2.13
2022-09-23T08:07:16.715Z,1.52
2022-09-23T08:09:45.097Z,1.73
2022-09-23T08:12:16.444Z,1.48
2022-09-23T08:17:13.644Z,1.58
2022-09-23T08:19:41.596Z,0.93
2022-09-23T08:22:09.697Z,1.42
2022-09-23T08:24:37.754Z,1.40
2022-09-23T08:27:24.504Z,1.55
2022-09-23T08:29:52.562Z,1.50
2022-09-23T08:32:20.558Z,1.55
2022-09-23T08:34:49.181Z,1.90
2022-09-23T08:37:17.135Z,2.28
2022-09-23T08:39:45.158Z,1.60
2022-09-23T08:42:22.270Z,1.50
2022-09-23T08:44:58.078Z,1.50
2022-09-23T08:48:18.557Z,1.75
2022-09-23T08:50:50.608Z,1.90
2022-09-23T08:53:38.514Z,1.42
2022-09-23T08:56:17.732Z,1.50
2022-09-23T08:59:29.095Z,2.10
2022-09-23T09:02:00.966Z,1.33
2022-09-23T09:04:43.177Z,1.35
2022-09-23T09:10:35.503Z,1.67
2022-09-23T09:13:20.743Z,2.05
2022-09-23T09:15:58.677Z,1.80
2022-09-23T09:18:30.758Z,2.20
2022-09-23T09:21:13.134Z,1.60
2022-09-23T09:24:00.474Z,2.00
2022-09-23T09:26:33.251Z,1.50
2022-09-23T09:29:33.736Z,1.77
2022-09-23T09:32:29.811Z,1.50
2022-09-23T09:35:05.529Z,2.05
2022-09-23T09:37:47.911Z,1.50
2022-09-23T09:40:35.447Z,1.30
2022-09-23T09:46:29.837Z,1.10
2022-09-23T09:49:07.967Z,1.20
2022-09-23T09:51:37.462Z,1.13
2022-09-23T09:54:23.493Z,1.75
2022-09-23T09:56:52.804Z,1.10
2022-09-23T09:59:27.822Z,1.52
2022-09-23T10:02:22.263Z,1.27
2022-09-23T10:07:44.160Z,1.48
2022-09-23T10:10:32.870Z,1.33
2022-09-23T10:13:16.190Z,1.67
2022-09-23T10:15:45.568Z,2.00
2022-09-23T10:18:36.168Z,1.27
2022-09-23T10:21:16.295Z,1.10
2022-09-23T10:23:53.483Z,1.90
2022-09-23T10:26:51.526Z,1.60
2022-09-23T10:32:28.311Z,1.73
2022-09-23T10:35:09.190Z,1.60
2022-09-23T10:37:38.780Z,1.65
2022-09-23T10:40:54.311Z,1.90
2022-09-23T10:43:50.035Z,1.48
2022-09-23T10:46:41.665Z,2.17
2022-09-23T10:49:46.544Z,1.90
2022-09-23T10:52:36.662Z,1.50
2022-09-23T10:55:30.523Z,1.88
2022-09-23T10:58:07.465Z,1.98
2022-09-23T11:01:15.156Z,1.80
2022-09-23T11:04:01.726Z,1.77
2022-09-23T11:06:49.117Z,1.50
2022-09-23T11:09:50.883Z,1.42
2022-09-23T11:12:27.733Z,2.28
2022-09-23T11:15:39.404Z,1.60
2022-09-23T11:19:05.782Z,1.98
2022-09-23T11:22:02.860Z,1.83
2022-09-23T11:25:21.493Z,1.48
2022-09-23T11:28:11.511Z,1.10
2022-09-23T11:31:00.455Z,1.20
2022-09-23T11:33:47.372Z,1.48
2022-09-23T11:36:28.640Z,1.10
2022-09-23T11:38:59.611Z,1.20
2022-09-23T11:44:08.350Z,1.20
2022-09-23T11:46:41.854Z,1.35
2022-09-23T11:49:14.852Z,1.00
2022-09-23T11:52:08.893Z,1.20
2022-09-23T11:54:57.750Z,1.33
2022-09-23T11:57:45.086Z,1.35
2022-09-23T12:00:28.278Z,1.55
2022-09-23T12:03:43.977Z,1.40
2022-09-23T12:06:21.661Z,1.80
2022-09-23T12:08:57.149Z,1.95
2022-09-23T12:11:27.850Z,1.50
2022-09-23T12:14:31.231Z,1.42
2022-09-23T12:17:29.867Z,1.55
2022-09-23T12:20:22.519Z,1.67
2022-09-23T12:23:27.021Z,1.65
2022-09-23T12:26:21.593Z,1.73
2022-09-23T12:28:53.321Z,1.55
2022-09-23T12:31:30.846Z,2.05
2022-09-23T12:34:01.407Z,1.92
2022-09-23T12:36:35.669Z,1.65
2022-09-23T12:39:15.500Z,1.58
2022-09-23T12:41:59.173Z,2.05
2022-09-23T12:44:37.987Z,1.58
2022-09-23T12:47:14.810Z,1.77
2022-09-23T12:49:43.925Z,1.40
2022-09-23T12:52:25.997Z,2.00
2022-09-23T12:54:59.245Z,1.92
2022-09-23T12:57:36.541Z,1.88
2022-09-23T13:02:41.363Z,1.33
2022-09-23T13:05:27.884Z,1.58
2022-09-23T13:08:02.588Z,1.75
2022-09-23T13:10:35.325Z,1.98
2022-09-23T13:13:32.767Z,1.38
2022-09-23T13:16:31.380Z,1.50
2022-09-23T13:19:27.362Z,1.70
2022-09-23T13:22:14.127Z,1.30
2022-09-23T13:24:47.839Z,1.60
2022-09-23T13:30:27.117Z,1.20
2022-09-23T13:33:19.099Z,1.20
2022-09-23T13:35:53.187Z,2.17
2022-09-23T13:38:26.437Z,1.67
2022-09-23T13:40:58.049Z,1.55
2022-09-23T13:43:34.714Z,2.45
2022-09-23T13:46:10.825Z,1.80
2022-09-23T13:48:39.528Z,1.85
2022-09-23T13:51:10.662Z,1.75
2022-09-23T13:53:38.990Z,2.33
2022-09-23T13:56:19.461Z,2.00
2022-09-23T13:59:25.415Z,2.35
2022-09-23T14:02:12.059Z,1.60
2022-09-23T14:04:40.760Z,1.55
2022-09-23T14:07:12.072Z,1.48
2022-09-23T14:09:47.342Z,1.98
2022-09-23T14:12:22.248Z,1.63
2022-09-23T14:14:52.162Z,1.77
2022-09-23T14:17:23.195Z,2.00
2022-09-23T14:19:51.675Z,2.90
2022-09-23T14:22:28.177Z,2.40
2022-09-23T14:24:57.796Z,1.90
2022-09-23T14:27:31.738Z,2.00
2022-09-23T14:30:02.458Z,1.70
2022-09-23T14:32:32.226Z,1.90
2022-09-23T14:35:18.573Z,1.75
2022-09-23T14:38:07.157Z,1.42
2022-09-23T14:41:15.724Z,1.73
2022-09-23T14:43:52.535Z,1.40
2022-09-23T14:46:22.076Z,1.52
2022-09-23T14:49:07.289Z,1.85
2022-09-23T14:52:00.771Z,1.60
2022-09-23T14:54:47.088Z,1.40
2022-09-23T14:57:24.345Z,2.05
2022-09-23T15:02:35.117Z,2.15
2022-09-23T15:05:18.874Z,1.70
2022-09-23T15:07:52.567Z,1.88
2022-09-23T15:10:28.077Z,1.75
2022-09-23T15:13:05.758Z,1.90
2022-09-23T15:18:25.842Z,1.58
2022-09-23T15:21:01.179Z,1.80
2022-09-23T15:23:34.338Z,1.35
2022-09-23T15:26:17.344Z,1.60
2022-09-23T15:28:46.752Z,2.25
2022-09-23T15:31:19.689Z,2.05
2022-09-23T15:33:49.434Z,1.70
2022-09-23T15:36:23.937Z,1.73
2022-09-23T15:38:52.700Z,1.80
2022-09-23T15:41:21.643Z,2.20
2022-09-23T15:43:49.977Z,2.17
2022-09-23T15:46:25.649Z,2.03
2022-09-23T15:49:36.522Z,2.25
2022-09-23T15:52:05.835Z,2.00
2022-09-23T15:54:34.054Z,1.60
2022-09-23T15:57:02.434Z,1.58
2022-09-23T15:59:33.513Z,1.27
2022-09-23T16:02:07.019Z,2.13
2022-09-23T16:04:36.277Z,1.52
2022-09-23T16:07:05.905Z,1.60
2022-09-23T16:09:33.952Z,1.95
2022-09-23T16:12:03.514Z,1.80
2022-09-23T16:14:31.561Z,2.63
2022-09-23T16:16:59.659Z,1.67
2022-09-23T16:19:27.818Z,1.50
2022-09-23T16:21:55.832Z,1.67
2022-09-23T16:24:28.019Z,1.48
2022-09-23T16:27:00.212Z,1.55
2022-09-23T16:29:28.330Z,2.10
2022-09-23T16:31:56.360Z,2.22
2022-09-23T16:34:24.469Z,1.83
2022-09-23T16:36:52.946Z,1.98
2022-09-23T16:39:23.095Z,1.35
2022-09-23T16:41:51.053Z,1.85
2022-09-23T16:44:19.002Z,1.73
2022-09-23T16:46:47.148Z,1.70
2022-09-23T16:49:15.219Z,1.90
2022-09-23T16:51:43.221Z,2.28
2022-09-23T16:54:12.851Z,2.60
2022-09-23T16:56:44.595Z,2.40
2022-09-23T16:59:14.106Z,1.88
2022-09-23T17:02:00.867Z,2.25
2022-09-23T17:04:29.008Z,1.90
2022-09-23T17:06:57.420Z,2.42
2022-09-23T17:09:28.473Z,2.30
2022-09-23T17:12:10.434Z,1.95
2022-09-23T17:14:38.493Z,2.08
2022-09-23T17:17:06.899Z,2.05
2022-09-23T17:19:53.345Z,1.95
2022-09-23T17:22:21.283Z,1.65
2022-09-23T17:24:49.290Z,1.75
2022-09-23T17:27:17.584Z,2.40
2022-09-23T17:29:45.554Z,2.28
2022-09-23T17:32:32.065Z,1.90
2022-09-23T17:35:04.704Z,1.83
2022-09-23T17:37:33.545Z,2.20
2022-09-23T17:40:02.047Z,2.30
2022-09-23T17:42:30.056Z,2.22
2022-09-23T17:44:59.624Z,1.77
2022-09-23T17:47:27.630Z,2.10
2022-09-23T17:49:56.531Z,1.90
2022-09-23T17:52:24.664Z,2.15
2022-09-23T17:54:55.294Z,2.22
2022-09-23T17:57:23.372Z,2.42
2022-09-23T17:59:53.927Z,2.05
2022-09-23T18:02:22.874Z,2.03
2022-09-23T18:04:51.005Z,1.85
2022-09-23T18:07:37.518Z,1.90
2022-09-23T18:10:06.244Z,2.17
2022-09-23T18:12:34.266Z,1.77
2022-09-23T18:15:02.323Z,3.13
2022-09-23T18:17:31.270Z,1.60
2022-09-23T18:19:59.310Z,1.90
2022-09-23T18:22:27.290Z,1.92
2022-09-23T18:24:55.366Z,1.95
2022-09-23T18:27:23.445Z,2.10
2022-09-23T18:29:51.507Z,1.70
2022-09-23T18:35:05.896Z,2.15
2022-09-23T18:37:33.951Z,2.42
2022-09-23T18:40:02.228Z,2.67
2022-09-23T18:45:16.133Z,2.00
2022-09-23T18:48:02.534Z,2.13
2022-09-23T18:50:39.810Z,2.10
2022-09-23T18:53:08.547Z,1.98
2022-09-23T18:55:37.392Z,2.05
2022-09-23T18:58:07.618Z,1.80
2022-09-23T19:00:35.727Z,1.58
2022-09-23T19:03:04.392Z,2.00
2022-09-23T19:05:35.445Z,1.60
2022-09-23T19:08:03.596Z,1.95
2022-09-23T19:10:31.730Z,1.70
2022-09-23T19:13:18.448Z,2.05
2022-09-23T19:15:47.257Z,1.98
2022-09-23T19:18:15.238Z,2.15
2022-09-23T19:20:54.052Z,1.83
2022-09-23T19:23:22.060Z,1.77
2022-09-23T19:25:50.063Z,2.75
2022-09-23T19:28:18.107Z,2.10
2022-09-23T19:30:46.112Z,1.98
2022-09-23T19:33:14.158Z,1.85
2022-09-23T19:35:49.742Z,1.80
2022-09-23T19:38:20.382Z,2.55
2022-09-23T19:43:54.617Z,2.20
2022-09-23T19:46:23.484Z,2.38
2022-09-23T19:48:51.593Z,2.05
2022-09-23T19:51:19.714Z,2.03
2022-09-23T19:53:47.731Z,2.33
2022-09-23T19:56:18.361Z,2.53
2022-09-23T19:58:49.082Z,1.98
2022-09-23T20:01:17.838Z,1.90
2022-09-23T20:03:47.243Z,2.50
2022-09-23T20:06:38.266Z,2.10
2022-09-23T20:09:24.793Z,1.80
2022-09-23T20:11:52.861Z,1.95
2022-09-23T20:14:22.353Z,2.15
2022-09-23T20:16:53.386Z,2.03
2022-09-23T20:19:21.638Z,2.15
2022-09-23T20:22:09.552Z,2.35
2022-09-23T20:24:37.648Z,2.28
2022-09-23T20:27:11.685Z,2.47
2022-09-23T20:29:39.734Z,2.33
2022-09-23T20:32:07.741Z,2.42
2022-09-23T20:34:35.797Z,2.13
2022-09-23T20:37:05.920Z,2.53
2022-09-23T20:39:34.065Z,3.33
2022-09-23T20:42:03.044Z,2.13
2022-09-23T20:44:31.244Z,2.30
2022-09-23T20:49:46.650Z,2.63
2022-09-23T20:52:17.077Z,2.17
2022-09-23T20:54:45.182Z,2.50
2022-09-23T20:57:15.079Z,2.72
2022-09-23T21:02:29.234Z,2.88
2022-09-23T21:04:57.383Z,3.08
2022-09-23T21:07:46.705Z,2.47
2022-09-23T21:10:14.792Z,1.88
2022-09-23T21:12:42.798Z,1.50
2022-09-23T21:15:11.021Z,1.30
2022-09-23T21:17:57.770Z,1.65
2022-09-23T21:20:25.958Z,1.35
2022-09-23T21:22:54.076Z,1.73
2022-09-23T21:25:30.330Z,2.10
2022-09-23T21:28:02.037Z,1.80
2022-09-23T21:30:30.198Z,2.40
2022-09-23T21:32:59.831Z,2.35
2022-09-23T21:35:28.374Z,2.22
2022-09-23T21:37:56.434Z,3.67
2022-09-23T21:40:57.825Z,2.05
2022-09-23T21:43:27.808Z,2.22
2022-09-23T21:46:01.211Z,3.03
2022-09-23T21:48:31.335Z,2.42
2022-09-23T21:51:05.442Z,4.32
2022-09-23T21:53:36.598Z,3.08
2022-09-23T21:56:19.758Z,2.55
2022-09-23T21:58:50.000Z,2.88
2022-09-23T22:01:19.657Z,2.63
2022-09-23T22:04:09.520Z,3.70
2022-09-23T22:06:38.786Z,3.33
2022-09-23T22:09:29.806Z,2.75
2022-09-23T22:12:09.977Z,2.28
2022-09-23T22:14:56.523Z,1.77
2022-09-23T22:17:24.819Z,2.40
2022-09-23T22:19:53.065Z,2.05
2022-09-23T22:22:21.206Z,1.70
2022-09-23T22:24:49.460Z,2.38
2022-09-23T22:27:56.979Z,2.60
2022-09-23T22:30:43.576Z,1.63
2022-09-23T22:33:30.487Z,1.73
2022-09-23T22:36:36.213Z,2.10
2022-09-23T22:39:05.509Z,1.50
2022-09-23T22:41:37.653Z,1.70
2022-09-23T22:44:05.992Z,2.35
2022-09-23T22:46:35.498Z,1.48
2022-09-23T22:49:22.568Z,1.52
2022-09-23T22:51:53.823Z,1.80
2022-09-23T22:54:22.532Z,2.35
2022-09-23T22:56:51.193Z,1.80
2022-09-23T22:59:19.391Z,1.25
2022-09-23T23:02:08.380Z,2.00
2022-09-23T23:04:36.854Z,1.38
2022-09-23T23:07:06.299Z,1.48
2022-09-23T23:09:34.558Z,1.85
2022-09-23T23:12:03.055Z,1.10
2022-09-23T23:14:31.800Z,1.20
2022-09-23T23:17:00.021Z,1.35
2022-09-23T23:19:28.178Z,1.40
2022-09-23T23:22:14.749Z,1.02
2022-09-23T23:24:43.382Z,1.05
2022-09-23T23:27:11.510Z,1.30
2022-09-23T23:29:39.659Z,2.05
2022-09-23T23:32:45.355Z,1.10
2022-09-23T23:35:13.422Z,2.08
2022-09-23T23:37:41.642Z,1.95
2022-09-23T23:40:10.529Z,1.75
2022-09-23T23:42:38.856Z,1.95
2022-09-23T23:45:07.707Z,1.70
2022-09-23T23:47:54.267Z,1.83
2022-09-23T23:50:23.764Z,2.33
2022-09-23T23:52:51.902Z,1.88
2022-09-23T23:55:19.949Z,1.80
2022-09-23T23:57:48.369Z,1.70
